sensor_id;sensor_type;location;lat;lon;timestamp;P1;durP1;ratioP1;P2;durP2;ratioP2
46653;SDS011;38960;51.074;17.004;2023-01-16T00:00:22;2.30;;;1.37;;
46653;SDS011;38960;51.074;17.004;2023-01-16T00:02:47;2.17;;;1.23;;
46653;SDS011;38960;51.074;17.004;2023-01-16T00:05:13;4.05;;;1.65;;
46653;SDS011;38960;51.074;17.004;2023-01-16T00:07:38;2.55;;;1.42;;
46653;SDS011;38960;51.074;17.004;2023-01-16T00:10:04;2.70;;;1.43;;
46653;SDS011;38960;51.074;17.004;2023-01-16T00:12:30;1.47;;;1.13;;
46653;SDS011;38960;51.074;17.004;2023-01-16T00:14:56;3.67;;;1.90;;
46653;SDS011;38960;51.074;17.004;2023-01-16T00:17:21;3.30;;;1.50;;
46653;SDS011;38960;51.074;17.004;2023-01-16T00:19:47;2.57;;;1.27;;
46653;SDS011;38960;51.074;17.004;2023-01-16T00:22:12;4.73;;;1.50;;
46653;SDS011;38960;51.074;17.004;2023-01-16T00:24:38;3.13;;;1.50;;
46653;SDS011;38960;51.074;17.004;2023-01-16T00:27:03;4.10;;;1.53;;
46653;SDS011;38960;51.074;17.004;2023-01-16T00:29:29;2.80;;;1.40;;
46653;SDS011;38960;51.074;17.004;2023-01-16T00:31:55;3.53;;;1.57;;
46653;SDS011;38960;51.074;17.004;2023-01-16T00:34:20;4.47;;;1.20;;
46653;SDS011;38960;51.074;17.004;2023-01-16T00:36:46;3.60;;;1.37;;
46653;SDS011;38960;51.074;17.004;2023-01-16T00:39:11;3.77;;;1.50;;
46653;SDS011;38960;51.074;17.004;2023-01-16T00:41:37;2.57;;;1.50;;
46653;SDS011;38960;51.074;17.004;2023-01-16T00:44:02;2.47;;;1.20;;
46653;SDS011;38960;51.074;17.004;2023-01-16T00:46:28;2.73;;;1.30;;
46653;SDS011;38960;51.074;17.004;2023-01-16T00:48:54;3.80;;;1.40;;
46653;SDS011;38960;51.074;17.004;2023-01-16T00:51:21;2.27;;;1.23;;
46653;SDS011;38960;51.074;17.004;2023-01-16T00:53:47;2.87;;;1.10;;
46653;SDS011;38960;51.074;17.004;2023-01-16T00:56:12;2.90;;;1.50;;
46653;SDS011;38960;51.074;17.004;2023-01-16T00:58:38;4.43;;;1.57;;
46653;SDS011;38960;51.074;17.004;2023-01-16T01:01:04;4.27;;;1.80;;
46653;SDS011;38960;51.074;17.004;2023-01-16T01:03:29;3.80;;;1.60;;
46653;SDS011;38960;51.074;17.004;2023-01-16T01:05:55;3.70;;;1.70;;
46653;SDS011;38960;51.074;17.004;2023-01-16T01:08:21;1.83;;;1.33;;
46653;SDS011;38960;51.074;17.004;2023-01-16T01:10:46;4.67;;;1.20;;
46653;SDS011;38960;51.074;17.004;2023-01-16T01:13:12;2.27;;;1.20;;
46653;SDS011;38960;51.074;17.004;2023-01-16T01:15:38;3.33;;;1.03;;
46653;SDS011;38960;51.074;17.004;2023-01-16T01:18:04;1.80;;;1.10;;
46653;SDS011;38960;51.074;17.004;2023-01-16T01:20:30;3.20;;;1.63;;
46653;SDS011;38960;51.074;17.004;2023-01-16T01:22:55;3.03;;;1.30;;
46653;SDS011;38960;51.074;17.004;2023-01-16T01:25:21;1.97;;;1.17;;
46653;SDS011;38960;51.074;17.004;2023-01-16T01:27:46;4.07;;;1.20;;
46653;SDS011;38960;51.074;17.004;2023-01-16T01:30:12;3.73;;;1.30;;
46653;SDS011;38960;51.074;17.004;2023-01-16T01:32:38;2.90;;;1.30;;
46653;SDS011;38960;51.074;17.004;2023-01-16T01:35:04;2.20;;;1.30;;
46653;SDS011;38960;51.074;17.004;2023-01-16T01:37:31;4.90;;;1.30;;
46653;SDS011;38960;51.074;17.004;2023-01-16T01:39:56;3.23;;;1.40;;
46653;SDS011;38960;51.074;17.004;2023-01-16T01:42:22;2.97;;;1.30;;
46653;SDS011;38960;51.074;17.004;2023-01-16T01:45:20;4.15;;;1.42;;
46653;SDS011;38960;51.074;17.004;2023-01-16T01:48:39;3.83;;;1.77;;
46653;SDS011;38960;51.074;17.004;2023-01-16T01:50:57;3.53;;;1.53;;
46653;SDS011;38960;51.074;17.004;2023-01-16T01:53:37;2.33;;;1.30;;
46653;SDS011;38960;51.074;17.004;2023-01-16T01:56:34;3.40;;;1.50;;
46653;SDS011;38960;51.074;17.004;2023-01-16T01:59:12;4.13;;;1.17;;
46653;SDS011;38960;51.074;17.004;2023-01-16T02:01:41;3.87;;;1.33;;
46653;SDS011;38960;51.074;17.004;2023-01-16T02:04:08;3.40;;;1.50;;
46653;SDS011;38960;51.074;17.004;2023-01-16T02:06:49;2.65;;;1.35;;
46653;SDS011;38960;51.074;17.004;2023-01-16T02:09:17;2.57;;;1.40;;
46653;SDS011;38960;51.074;17.004;2023-01-16T02:11:57;3.37;;;1.37;;
46653;SDS011;38960;51.074;17.004;2023-01-16T02:14:27;2.40;;;1.10;;
46653;SDS011;38960;51.074;17.004;2023-01-16T02:17:16;2.40;;;1.30;;
46653;SDS011;38960;51.074;17.004;2023-01-16T02:28:05;4.20;;;1.30;;
46653;SDS011;38960;51.074;17.004;2023-01-16T02:35:59;3.15;;;1.50;;
46653;SDS011;38960;51.074;17.004;2023-01-16T02:49:28;3.40;;;1.60;;
46653;SDS011;38960;51.074;17.004;2023-01-16T02:54:42;3.23;;;1.33;;
46653;SDS011;38960;51.074;17.004;2023-01-16T02:57:17;3.85;;;1.33;;
46653;SDS011;38960;51.074;17.004;2023-01-16T02:59:44;2.60;;;1.20;;
46653;SDS011;38960;51.074;17.004;2023-01-16T03:02:10;1.90;;;1.03;;
46653;SDS011;38960;51.074;17.004;2023-01-16T03:09:47;5.43;;;1.50;;
46653;SDS011;38960;51.074;17.004;2023-01-16T03:23:40;3.37;;;1.63;;
46653;SDS011;38960;51.074;17.004;2023-01-16T03:28:48;4.63;;;2.00;;
46653;SDS011;38960;51.074;17.004;2023-01-16T03:36:43;2.90;;;1.20;;
46653;SDS011;38960;51.074;17.004;2023-01-16T03:39:16;1.97;;;1.23;;
46653;SDS011;38960;51.074;17.004;2023-01-16T03:41:43;4.23;;;1.70;;
46653;SDS011;38960;51.074;17.004;2023-01-16T03:44:14;2.70;;;1.33;;
46653;SDS011;38960;51.074;17.004;2023-01-16T03:46:45;3.77;;;1.40;;
46653;SDS011;38960;51.074;17.004;2023-01-16T03:49:16;3.73;;;1.47;;
46653;SDS011;38960;51.074;17.004;2023-01-16T03:51:54;3.27;;;1.33;;
46653;SDS011;38960;51.074;17.004;2023-01-16T03:54:30;3.47;;;1.13;;
46653;SDS011;38960;51.074;17.004;2023-01-16T03:57:08;4.27;;;1.47;;
46653;SDS011;38960;51.074;17.004;2023-01-16T03:59:37;4.57;;;1.20;;
46653;SDS011;38960;51.074;17.004;2023-01-16T04:04:46;2.10;;;1.30;;
46653;SDS011;38960;51.074;17.004;2023-01-16T04:07:17;2.37;;;1.23;;
46653;SDS011;38960;51.074;17.004;2023-01-16T04:09:49;3.20;;;1.23;;
46653;SDS011;38960;51.074;17.004;2023-01-16T04:12:20;2.20;;;1.30;;
46653;SDS011;38960;51.074;17.004;2023-01-16T04:14:48;3.03;;;1.30;;
46653;SDS011;38960;51.074;17.004;2023-01-16T04:17:17;2.60;;;1.30;;
46653;SDS011;38960;51.074;17.004;2023-01-16T04:19:42;3.57;;;1.27;;
46653;SDS011;38960;51.074;17.004;2023-01-16T04:22:09;3.07;;;1.20;;
46653;SDS011;38960;51.074;17.004;2023-01-16T04:24:44;3.33;;;2.17;;
46653;SDS011;38960;51.074;17.004;2023-01-16T04:27:10;3.83;;;1.50;;
46653;SDS011;38960;51.074;17.004;2023-01-16T04:29:36;3.83;;;1.60;;
46653;SDS011;38960;51.074;17.004;2023-01-16T04:32:01;2.50;;;1.13;;
46653;SDS011;38960;51.074;17.004;2023-01-16T04:34:27;2.37;;;1.20;;
46653;SDS011;38960;51.074;17.004;2023-01-16T04:36:52;3.30;;;1.43;;
46653;SDS011;38960;51.074;17.004;2023-01-16T04:39:18;4.27;;;1.53;;
46653;SDS011;38960;51.074;17.004;2023-01-16T04:41:43;3.50;;;1.47;;
46653;SDS011;38960;51.074;17.004;2023-01-16T04:44:12;4.23;;;1.80;;
46653;SDS011;38960;51.074;17.004;2023-01-16T04:46:38;3.07;;;1.30;;
46653;SDS011;38960;51.074;17.004;2023-01-16T04:49:04;3.13;;;1.27;;
46653;SDS011;38960;51.074;17.004;2023-01-16T04:51:30;3.90;;;1.43;;
46653;SDS011;38960;51.074;17.004;2023-01-16T04:53:56;4.40;;;1.40;;
46653;SDS011;38960;51.074;17.004;2023-01-16T04:56:22;6.77;;;1.30;;
46653;SDS011;38960;51.074;17.004;2023-01-16T04:58:47;2.67;;;1.10;;
46653;SDS011;38960;51.074;17.004;2023-01-16T05:01:16;2.60;;;1.37;;
46653;SDS011;38960;51.074;17.004;2023-01-16T05:03:42;3.60;;;1.50;;
46653;SDS011;38960;51.074;17.004;2023-01-16T05:06:08;3.57;;;1.13;;
46653;SDS011;38960;51.074;17.004;2023-01-16T05:08:33;4.13;;;1.40;;
46653;SDS011;38960;51.074;17.004;2023-01-16T05:10:59;3.17;;;2.00;;
46653;SDS011;38960;51.074;17.004;2023-01-16T05:13:26;3.90;;;1.50;;
46653;SDS011;38960;51.074;17.004;2023-01-16T05:15:53;3.93;;;1.43;;
46653;SDS011;38960;51.074;17.004;2023-01-16T05:18:18;7.00;;;1.60;;
46653;SDS011;38960;51.074;17.004;2023-01-16T05:20:44;4.40;;;2.10;;
46653;SDS011;38960;51.074;17.004;2023-01-16T05:23:09;3.57;;;1.57;;
46653;SDS011;38960;51.074;17.004;2023-01-16T05:25:36;3.27;;;1.30;;
46653;SDS011;38960;51.074;17.004;2023-01-16T05:28:02;2.50;;;1.43;;
46653;SDS011;38960;51.074;17.004;2023-01-16T05:30:28;2.50;;;1.40;;
46653;SDS011;38960;51.074;17.004;2023-01-16T05:32:54;3.10;;;1.40;;
46653;SDS011;38960;51.074;17.004;2023-01-16T05:35:19;4.73;;;2.03;;
46653;SDS011;38960;51.074;17.004;2023-01-16T05:37:45;3.83;;;1.77;;
46653;SDS011;38960;51.074;17.004;2023-01-16T05:40:11;4.40;;;1.90;;
46653;SDS011;38960;51.074;17.004;2023-01-16T05:42:38;2.97;;;1.57;;
46653;SDS011;38960;51.074;17.004;2023-01-16T05:45:04;5.57;;;1.50;;
46653;SDS011;38960;51.074;17.004;2023-01-16T05:47:30;3.27;;;1.40;;
46653;SDS011;38960;51.074;17.004;2023-01-16T05:49:55;3.53;;;1.80;;
46653;SDS011;38960;51.074;17.004;2023-01-16T05:52:24;4.03;;;1.53;;
46653;SDS011;38960;51.074;17.004;2023-01-16T05:54:52;3.67;;;1.57;;
46653;SDS011;38960;51.074;17.004;2023-01-16T05:57:18;4.67;;;1.73;;
46653;SDS011;38960;51.074;17.004;2023-01-16T05:59:46;4.70;;;1.83;;
46653;SDS011;38960;51.074;17.004;2023-01-16T06:02:13;3.73;;;1.50;;
46653;SDS011;38960;51.074;17.004;2023-01-16T06:04:38;4.63;;;2.30;;
46653;SDS011;38960;51.074;17.004;2023-01-16T06:07:04;5.50;;;2.70;;
46653;SDS011;38960;51.074;17.004;2023-01-16T06:09:29;3.97;;;1.73;;
46653;SDS011;38960;51.074;17.004;2023-01-16T06:11:55;5.87;;;1.80;;
46653;SDS011;38960;51.074;17.004;2023-01-16T06:14:20;4.30;;;2.00;;
46653;SDS011;38960;51.074;17.004;2023-01-16T06:16:46;5.60;;;2.20;;
46653;SDS011;38960;51.074;17.004;2023-01-16T06:19:11;5.83;;;2.10;;
46653;SDS011;38960;51.074;17.004;2023-01-16T06:21:37;5.23;;;1.63;;
46653;SDS011;38960;51.074;17.004;2023-01-16T06:24:03;3.00;;;1.87;;
46653;SDS011;38960;51.074;17.004;2023-01-16T06:26:28;2.23;;;1.30;;
46653;SDS011;38960;51.074;17.004;2023-01-16T06:28:54;4.93;;;1.60;;
46653;SDS011;38960;51.074;17.004;2023-01-16T06:31:21;3.33;;;1.27;;
46653;SDS011;38960;51.074;17.004;2023-01-16T06:33:47;3.13;;;1.10;;
46653;SDS011;38960;51.074;17.004;2023-01-16T06:36:12;4.03;;;1.37;;
46653;SDS011;38960;51.074;17.004;2023-01-16T06:38:38;6.40;;;1.53;;
46653;SDS011;38960;51.074;17.004;2023-01-16T06:41:04;2.67;;;1.37;;
46653;SDS011;38960;51.074;17.004;2023-01-16T06:43:29;4.90;;;1.70;;
46653;SDS011;38960;51.074;17.004;2023-01-16T06:45:55;3.43;;;1.43;;
46653;SDS011;38960;51.074;17.004;2023-01-16T06:48:21;4.90;;;1.47;;
46653;SDS011;38960;51.074;17.004;2023-01-16T06:50:47;7.97;;;2.80;;
46653;SDS011;38960;51.074;17.004;2023-01-16T06:53:12;3.13;;;1.60;;
46653;SDS011;38960;51.074;17.004;2023-01-16T06:55:38;2.87;;;1.37;;
46653;SDS011;38960;51.074;17.004;2023-01-16T06:58:05;4.17;;;1.30;;
46653;SDS011;38960;51.074;17.004;2023-01-16T07:00:30;3.63;;;1.53;;
46653;SDS011;38960;51.074;17.004;2023-01-16T07:02:56;5.40;;;1.63;;
46653;SDS011;38960;51.074;17.004;2023-01-16T07:05:23;9.90;;;1.80;;
46653;SDS011;38960;51.074;17.004;2023-01-16T07:07:49;5.33;;;1.77;;
46653;SDS011;38960;51.074;17.004;2023-01-16T07:10:15;3.77;;;1.50;;
46653;SDS011;38960;51.074;17.004;2023-01-16T07:12:41;3.07;;;1.67;;
46653;SDS011;38960;51.074;17.004;2023-01-16T07:15:07;3.17;;;1.83;;
46653;SDS011;38960;51.074;17.004;2023-01-16T07:17:54;4.73;;;2.20;;
46653;SDS011;38960;51.074;17.004;2023-01-16T07:20:38;7.53;;;2.43;;
46653;SDS011;38960;51.074;17.004;2023-01-16T07:23:30;5.43;;;2.60;;
46653;SDS011;38960;51.074;17.004;2023-01-16T07:25:57;8.30;;;2.77;;
46653;SDS011;38960;51.074;17.004;2023-01-16T07:28:25;4.10;;;2.00;;
46653;SDS011;38960;51.074;17.004;2023-01-16T07:30:51;6.93;;;2.07;;
46653;SDS011;38960;51.074;17.004;2023-01-16T07:33:16;2.47;;;1.40;;
46653;SDS011;38960;51.074;17.004;2023-01-16T07:35:42;3.67;;;1.80;;
46653;SDS011;38960;51.074;17.004;2023-01-16T07:38:08;3.07;;;1.40;;
46653;SDS011;38960;51.074;17.004;2023-01-16T07:40:34;4.30;;;1.80;;
46653;SDS011;38960;51.074;17.004;2023-01-16T07:42:59;4.27;;;1.43;;
46653;SDS011;38960;51.074;17.004;2023-01-16T07:45:25;4.53;;;1.70;;
46653;SDS011;38960;51.074;17.004;2023-01-16T07:47:50;3.53;;;1.30;;
46653;SDS011;38960;51.074;17.004;2023-01-16T07:50:16;5.63;;;1.93;;
46653;SDS011;38960;51.074;17.004;2023-01-16T07:52:42;5.13;;;1.60;;
46653;SDS011;38960;51.074;17.004;2023-01-16T07:55:09;4.20;;;1.63;;
46653;SDS011;38960;51.074;17.004;2023-01-16T07:57:38;4.50;;;1.73;;
46653;SDS011;38960;51.074;17.004;2023-01-16T08:00:08;3.63;;;1.40;;
46653;SDS011;38960;51.074;17.004;2023-01-16T08:02:38;10.10;;;2.13;;
46653;SDS011;38960;51.074;17.004;2023-01-16T08:05:04;3.93;;;1.77;;
46653;SDS011;38960;51.074;17.004;2023-01-16T08:07:31;3.53;;;1.90;;
46653;SDS011;38960;51.074;17.004;2023-01-16T08:09:56;5.53;;;2.63;;
46653;SDS011;38960;51.074;17.004;2023-01-16T08:12:22;5.57;;;2.20;;
46653;SDS011;38960;51.074;17.004;2023-01-16T08:14:47;7.90;;;2.10;;
46653;SDS011;38960;51.074;17.004;2023-01-16T08:17:13;5.90;;;2.20;;
46653;SDS011;38960;51.074;17.004;2023-01-16T08:19:39;8.07;;;2.40;;
46653;SDS011;38960;51.074;17.004;2023-01-16T08:22:04;5.77;;;2.17;;
46653;SDS011;38960;51.074;17.004;2023-01-16T08:24:30;7.40;;;2.20;;
46653;SDS011;38960;51.074;17.004;2023-01-16T08:26:56;5.93;;;2.57;;
46653;SDS011;38960;51.074;17.004;2023-01-16T08:29:22;5.43;;;2.10;;
46653;SDS011;38960;51.074;17.004;2023-01-16T08:31:48;5.90;;;2.40;;
46653;SDS011;38960;51.074;17.004;2023-01-16T08:34:14;6.93;;;2.00;;
46653;SDS011;38960;51.074;17.004;2023-01-16T08:36:39;6.43;;;2.13;;
46653;SDS011;38960;51.074;17.004;2023-01-16T08:39:05;7.90;;;2.00;;
46653;SDS011;38960;51.074;17.004;2023-01-16T08:41:31;5.50;;;2.00;;
46653;SDS011;38960;51.074;17.004;2023-01-16T08:44:15;4.23;;;2.13;;
46653;SDS011;38960;51.074;17.004;2023-01-16T08:47:00;6.33;;;2.50;;
46653;SDS011;38960;51.074;17.004;2023-01-16T08:49:45;7.38;;;2.25;;
46653;SDS011;38960;51.074;17.004;2023-01-16T08:52:30;4.85;;;1.60;;
46653;SDS011;38960;51.074;17.004;2023-01-16T08:54:56;4.28;;;1.63;;
46653;SDS011;38960;51.074;17.004;2023-01-16T08:57:23;6.53;;;2.17;;
46653;SDS011;38960;51.074;17.004;2023-01-16T08:59:49;6.60;;;1.98;;
46653;SDS011;38960;51.074;17.004;2023-01-16T09:02:14;4.65;;;2.03;;
46653;SDS011;38960;51.074;17.004;2023-01-16T09:04:40;4.50;;;1.63;;
46653;SDS011;38960;51.074;17.004;2023-01-16T09:07:06;5.13;;;1.88;;
46653;SDS011;38960;51.074;17.004;2023-01-16T09:09:31;5.00;;;1.42;;
46653;SDS011;38960;51.074;17.004;2023-01-16T09:11:57;4.35;;;1.80;;
46653;SDS011;38960;51.074;17.004;2023-01-16T09:14:41;3.42;;;1.45;;
46653;SDS011;38960;51.074;17.004;2023-01-16T09:17:07;4.55;;;1.80;;
46653;SDS011;38960;51.074;17.004;2023-01-16T09:19:33;3.80;;;1.35;;
46653;SDS011;38960;51.074;17.004;2023-01-16T09:22:00;6.55;;;1.80;;
46653;SDS011;38960;51.074;17.004;2023-01-16T09:24:26;4.15;;;2.00;;
46653;SDS011;38960;51.074;17.004;2023-01-16T09:26:51;6.35;;;2.30;;
46653;SDS011;38960;51.074;17.004;2023-01-16T09:29:17;3.10;;;1.77;;
46653;SDS011;38960;51.074;17.004;2023-01-16T09:31:42;3.90;;;1.70;;
46653;SDS011;38960;51.074;17.004;2023-01-16T09:34:08;3.65;;;1.65;;
46653;SDS011;38960;51.074;17.004;2023-01-16T09:36:34;5.97;;;1.30;;
46653;SDS011;38960;51.074;17.004;2023-01-16T09:38:59;4.20;;;1.70;;
46653;SDS011;38960;51.074;17.004;2023-01-16T09:41:25;3.53;;;1.80;;
46653;SDS011;38960;51.074;17.004;2023-01-16T09:44:11;6.45;;;1.70;;
46653;SDS011;38960;51.074;17.004;2023-01-16T09:46:40;4.50;;;2.00;;
46653;SDS011;38960;51.074;17.004;2023-01-16T09:51:45;5.28;;;1.65;;
46653;SDS011;38960;51.074;17.004;2023-01-16T09:54:35;4.55;;;1.75;;
46653;SDS011;38960;51.074;17.004;2023-01-16T09:57:23;2.70;;;1.52;;
46653;SDS011;38960;51.074;17.004;2023-01-16T10:00:10;3.92;;;2.08;;
46653;SDS011;38960;51.074;17.004;2023-01-16T10:02:37;6.28;;;2.13;;
46653;SDS011;38960;51.074;17.004;2023-01-16T10:05:03;3.65;;;1.67;;
46653;SDS011;38960;51.074;17.004;2023-01-16T10:27:38;2.95;;;1.67;;
46653;SDS011;38960;51.074;17.004;2023-01-16T10:32:41;3.55;;;1.30;;
46653;SDS011;38960;51.074;17.004;2023-01-16T10:37:46;6.78;;;2.10;;
46653;SDS011;38960;51.074;17.004;2023-01-16T10:40:19;3.35;;;1.73;;
46653;SDS011;38960;51.074;17.004;2023-01-16T10:43:13;6.03;;;1.65;;
46653;SDS011;38960;51.074;17.004;2023-01-16T10:45:59;4.70;;;1.90;;
46653;SDS011;38960;51.074;17.004;2023-01-16T10:48:54;3.65;;;2.00;;
46653;SDS011;38960;51.074;17.004;2023-01-16T10:51:38;6.15;;;1.50;;
46653;SDS011;38960;51.074;17.004;2023-01-16T10:54:04;3.78;;;1.45;;
46653;SDS011;38960;51.074;17.004;2023-01-16T10:56:30;3.65;;;1.52;;
46653;SDS011;38960;51.074;17.004;2023-01-16T10:58:58;6.18;;;1.92;;
46653;SDS011;38960;51.074;17.004;2023-01-16T11:01:23;3.90;;;1.85;;
46653;SDS011;38960;51.074;17.004;2023-01-16T11:03:51;6.13;;;2.13;;
46653;SDS011;38960;51.074;17.004;2023-01-16T11:06:20;3.92;;;2.75;;
46653;SDS011;38960;51.074;17.004;2023-01-16T11:08:47;4.15;;;1.90;;
46653;SDS011;38960;51.074;17.004;2023-01-16T11:11:14;3.45;;;2.00;;
46653;SDS011;38960;51.074;17.004;2023-01-16T11:13:59;5.03;;;1.92;;
46653;SDS011;38960;51.074;17.004;2023-01-16T11:16:44;5.72;;;1.75;;
46653;SDS011;38960;51.074;17.004;2023-01-16T11:19:28;2.83;;;1.50;;
46653;SDS011;38960;51.074;17.004;2023-01-16T11:24:33;4.65;;;2.20;;
46653;SDS011;38960;51.074;17.004;2023-01-16T11:27:01;7.18;;;2.38;;
46653;SDS011;38960;51.074;17.004;2023-01-16T11:29:34;8.20;;;3.20;;
46653;SDS011;38960;51.074;17.004;2023-01-16T11:32:06;8.63;;;2.78;;
46653;SDS011;38960;51.074;17.004;2023-01-16T11:34:35;8.80;;;2.47;;
46653;SDS011;38960;51.074;17.004;2023-01-16T11:37:03;5.97;;;2.10;;
46653;SDS011;38960;51.074;17.004;2023-01-16T11:39:31;5.85;;;2.28;;
46653;SDS011;38960;51.074;17.004;2023-01-16T11:41:59;5.07;;;2.00;;
46653;SDS011;38960;51.074;17.004;2023-01-16T11:44:47;6.13;;;2.20;;
46653;SDS011;38960;51.074;17.004;2023-01-16T11:47:39;8.15;;;2.38;;
46653;SDS011;38960;51.074;17.004;2023-01-16T11:52:58;6.45;;;2.33;;
46653;SDS011;38960;51.074;17.004;2023-01-16T11:55:25;3.97;;;2.38;;
46653;SDS011;38960;51.074;17.004;2023-01-16T11:58:07;4.13;;;2.00;;
46653;SDS011;38960;51.074;17.004;2023-01-16T12:06:04;5.05;;;2.20;;
46653;SDS011;38960;51.074;17.004;2023-01-16T12:14:48;6.03;;;1.92;;
46653;SDS011;38960;51.074;17.004;2023-01-16T12:17:40;6.32;;;2.25;;
46653;SDS011;38960;51.074;17.004;2023-01-16T12:20:41;3.97;;;2.40;;
46653;SDS011;38960;51.074;17.004;2023-01-16T12:23:23;5.28;;;2.38;;
46653;SDS011;38960;51.074;17.004;2023-01-16T12:26:18;5.65;;;3.00;;
46653;SDS011;38960;51.074;17.004;2023-01-16T12:47:52;6.45;;;2.63;;
46653;SDS011;38960;51.074;17.004;2023-01-16T12:58:29;9.75;;;2.60;;
46653;SDS011;38960;51.074;17.004;2023-01-16T13:01:02;9.45;;;2.60;;
46653;SDS011;38960;51.074;17.004;2023-01-16T13:03:36;7.13;;;2.13;;
46653;SDS011;38960;51.074;17.004;2023-01-16T13:06:10;8.18;;;2.10;;
46653;SDS011;38960;51.074;17.004;2023-01-16T13:08:44;5.43;;;2.33;;
46653;SDS011;38960;51.074;17.004;2023-01-16T13:11:21;6.78;;;2.55;;
46653;SDS011;38960;51.074;17.004;2023-01-16T13:14:08;6.43;;;2.85;;
46653;SDS011;38960;51.074;17.004;2023-01-16T13:24:39;6.65;;;3.05;;
46653;SDS011;38960;51.074;17.004;2023-01-16T13:27:11;5.72;;;2.80;;
46653;SDS011;38960;51.074;17.004;2023-01-16T13:29:50;8.88;;;2.85;;
46653;SDS011;38960;51.074;17.004;2023-01-16T13:34:55;6.75;;;2.47;;
46653;SDS011;38960;51.074;17.004;2023-01-16T13:42:57;4.80;;;2.08;;
46653;SDS011;38960;51.074;17.004;2023-01-16T13:48:13;7.75;;;2.28;;
46653;SDS011;38960;51.074;17.004;2023-01-16T13:50:42;5.28;;;2.10;;
46653;SDS011;38960;51.074;17.004;2023-01-16T13:53:13;6.55;;;2.10;;
46653;SDS011;38960;51.074;17.004;2023-01-16T13:55:39;6.53;;;2.80;;
46653;SDS011;38960;51.074;17.004;2023-01-16T13:58:20;6.35;;;2.45;;
46653;SDS011;38960;51.074;17.004;2023-01-16T14:01:01;8.82;;;3.28;;
46653;SDS011;38960;51.074;17.004;2023-01-16T14:03:29;5.18;;;2.55;;
46653;SDS011;38960;51.074;17.004;2023-01-16T14:08:47;6.43;;;3.03;;
46653;SDS011;38960;51.074;17.004;2023-01-16T14:17:18;8.13;;;3.85;;
46653;SDS011;38960;51.074;17.004;2023-01-16T14:22:25;6.88;;;3.30;;
46653;SDS011;38960;51.074;17.004;2023-01-16T14:24:57;7.65;;;3.90;;
46653;SDS011;38960;51.074;17.004;2023-01-16T14:27:24;8.50;;;3.70;;
46653;SDS011;38960;51.074;17.004;2023-01-16T14:29:58;7.80;;;3.78;;
46653;SDS011;38960;51.074;17.004;2023-01-16T14:32:28;10.70;;;4.78;;
46653;SDS011;38960;51.074;17.004;2023-01-16T14:34:59;11.15;;;4.35;;
46653;SDS011;38960;51.074;17.004;2023-01-16T14:37:43;8.98;;;4.47;;
46653;SDS011;38960;51.074;17.004;2023-01-16T14:40:21;9.05;;;4.22;;
46653;SDS011;38960;51.074;17.004;2023-01-16T14:43:09;8.40;;;3.78;;
46653;SDS011;38960;51.074;17.004;2023-01-16T14:46:12;8.13;;;4.10;;
46653;SDS011;38960;51.074;17.004;2023-01-16T14:48:58;8.88;;;3.92;;
46653;SDS011;38960;51.074;17.004;2023-01-16T14:51:54;7.70;;;3.65;;
46653;SDS011;38960;51.074;17.004;2023-01-16T14:54:38;14.15;;;4.65;;
46653;SDS011;38960;51.074;17.004;2023-01-16T14:57:23;10.30;;;3.95;;
46653;SDS011;38960;51.074;17.004;2023-01-16T15:02:50;8.88;;;3.33;;
46653;SDS011;38960;51.074;17.004;2023-01-16T15:06:01;8.05;;;3.13;;
46653;SDS011;38960;51.074;17.004;2023-01-16T15:08:27;7.35;;;2.83;;
46653;SDS011;38960;51.074;17.004;2023-01-16T15:10:56;8.18;;;3.10;;
46653;SDS011;38960;51.074;17.004;2023-01-16T15:13:30;6.05;;;3.30;;
46653;SDS011;38960;51.074;17.004;2023-01-16T15:16:16;9.32;;;3.33;;
46653;SDS011;38960;51.074;17.004;2023-01-16T15:19:03;9.30;;;3.97;;
46653;SDS011;38960;51.074;17.004;2023-01-16T15:22:00;7.00;;;3.63;;
46653;SDS011;38960;51.074;17.004;2023-01-16T15:24:26;7.25;;;3.67;;
46653;SDS011;38960;51.074;17.004;2023-01-16T15:27:07;7.85;;;3.85;;
46653;SDS011;38960;51.074;17.004;2023-01-16T15:29:55;9.18;;;3.83;;
46653;SDS011;38960;51.074;17.004;2023-01-16T15:32:52;9.15;;;5.03;;
46653;SDS011;38960;51.074;17.004;2023-01-16T15:35:42;12.63;;;5.95;;
46653;SDS011;38960;51.074;17.004;2023-01-16T15:38:09;16.60;;;6.93;;
46653;SDS011;38960;51.074;17.004;2023-01-16T15:40:35;12.35;;;6.78;;
46653;SDS011;38960;51.074;17.004;2023-01-16T15:43:01;12.65;;;7.40;;
46653;SDS011;38960;51.074;17.004;2023-01-16T15:49:07;9.80;;;6.60;;
46653;SDS011;38960;51.074;17.004;2023-01-16T15:51:38;14.57;;;5.82;;
46653;SDS011;38960;51.074;17.004;2023-01-16T15:54:04;13.98;;;5.85;;
46653;SDS011;38960;51.074;17.004;2023-01-16T15:56:44;13.48;;;6.45;;
46653;SDS011;38960;51.074;17.004;2023-01-16T15:59:21;19.88;;;7.88;;
46653;SDS011;38960;51.074;17.004;2023-01-16T16:04:45;18.95;;;6.60;;
46653;SDS011;38960;51.074;17.004;2023-01-16T16:07:11;18.45;;;7.55;;
46653;SDS011;38960;51.074;17.004;2023-01-16T16:09:38;16.90;;;6.53;;
46653;SDS011;38960;51.074;17.004;2023-01-16T16:12:05;33.00;;;11.68;;
46653;SDS011;38960;51.074;17.004;2023-01-16T16:14:31;30.70;;;11.13;;
46653;SDS011;38960;51.074;17.004;2023-01-16T16:17:18;24.45;;;9.45;;
46653;SDS011;38960;51.074;17.004;2023-01-16T16:20:29;19.98;;;7.63;;
46653;SDS011;38960;51.074;17.004;2023-01-16T16:28:15;17.15;;;6.80;;
46653;SDS011;38960;51.074;17.004;2023-01-16T16:30:46;20.65;;;8.52;;
46653;SDS011;38960;51.074;17.004;2023-01-16T16:33:20;18.50;;;7.82;;
46653;SDS011;38960;51.074;17.004;2023-01-16T16:35:49;19.88;;;7.70;;
46653;SDS011;38960;51.074;17.004;2023-01-16T16:38:26;17.48;;;8.13;;
46653;SDS011;38960;51.074;17.004;2023-01-16T16:48:49;16.08;;;7.85;;
46653;SDS011;38960;51.074;17.004;2023-01-16T16:51:26;16.13;;;7.97;;
46653;SDS011;38960;51.074;17.004;2023-01-16T16:53:53;14.00;;;6.60;;
46653;SDS011;38960;51.074;17.004;2023-01-16T16:56:33;13.57;;;7.25;;
46653;SDS011;38960;51.074;17.004;2023-01-16T16:59:00;16.67;;;7.35;;
46653;SDS011;38960;51.074;17.004;2023-01-16T17:01:25;19.08;;;7.32;;
46653;SDS011;38960;51.074;17.004;2023-01-16T17:03:53;14.10;;;7.05;;
46653;SDS011;38960;51.074;17.004;2023-01-16T17:06:21;16.90;;;7.83;;
46653;SDS011;38960;51.074;17.004;2023-01-16T17:08:49;15.13;;;6.47;;
46653;SDS011;38960;51.074;17.004;2023-01-16T17:11:15;13.48;;;6.80;;
46653;SDS011;38960;51.074;17.004;2023-01-16T17:13:41;13.95;;;5.78;;
46653;SDS011;38960;51.074;17.004;2023-01-16T17:16:13;11.40;;;4.88;;
46653;SDS011;38960;51.074;17.004;2023-01-16T17:18:41;11.20;;;6.78;;
46653;SDS011;38960;51.074;17.004;2023-01-16T17:21:07;13.20;;;6.32;;
46653;SDS011;38960;51.074;17.004;2023-01-16T17:23:33;17.88;;;8.57;;
46653;SDS011;38960;51.074;17.004;2023-01-16T17:25:58;14.10;;;7.22;;
46653;SDS011;38960;51.074;17.004;2023-01-16T17:28:24;16.35;;;7.28;;
46653;SDS011;38960;51.074;17.004;2023-01-16T17:30:51;12.10;;;6.47;;
46653;SDS011;38960;51.074;17.004;2023-01-16T17:33:17;13.40;;;7.57;;
46653;SDS011;38960;51.074;17.004;2023-01-16T17:35:44;13.32;;;7.05;;
46653;SDS011;38960;51.074;17.004;2023-01-16T17:38:24;15.70;;;8.20;;
46653;SDS011;38960;51.074;17.004;2023-01-16T17:40:50;17.90;;;8.20;;
46653;SDS011;38960;51.074;17.004;2023-01-16T17:43:16;15.85;;;8.00;;
46653;SDS011;38960;51.074;17.004;2023-01-16T17:46:02;14.13;;;7.77;;
46653;SDS011;38960;51.074;17.004;2023-01-16T17:48:31;15.38;;;8.27;;
46653;SDS011;38960;51.074;17.004;2023-01-16T17:50:57;21.00;;;9.55;;
46653;SDS011;38960;51.074;17.004;2023-01-16T17:53:27;19.00;;;10.93;;